Time;durP1;ratioP1;P1;durP2;ratioP2;P2;SDS_P1;SDS_P2;PMS_P1;PMS_P2;Temp;Humidity;BMP_temperature;BMP_pressure;BME280_temperature;BME280_humidity;BME280_pressure;Samples;Min_cycle;Max_cycle;Signal;HPM_P1;HPM_P2
2022/04/07 00:01:41;;;;;;;13.15;3.47;;;9.30;99.90;;;;;;4990174;28;20053;-79
2022/04/07 00:04:07;;;;;;;18.92;3.95;;;9.30;99.90;;;;;;4971828;28;20770;-80
2022/04/07 00:06:33;;;;;;;15.15;3.67;;;9.30;99.90;;;;;;4955818;28;20050;-80
2022/04/07 00:09:02;;;;;;;17.45;3.47;;;9.30;99.90;;;;;;4987366;28;20396;-79
2022/04/07 00:11:29;;;;;;;18.63;3.55;;;9.30;99.90;;;;;;4957169;28;20050;-79
2022/04/07 00:13:54;;;;;;;20.33;3.90;;;9.30;99.90;;;;;;4955848;28;20058;-79
2022/04/07 00:16:20;;;;;;;19.38;4.13;;;9.40;99.90;;;;;;4971523;28;20090;-79
2022/04/07 00:18:46;;;;;;;15.18;3.28;;;9.30;99.90;;;;;;4955541;28;20492;-78
2022/04/07 00:21:12;;;;;;;19.63;3.90;;;9.30;99.90;;;;;;4971095;28;20062;-79
2022/04/07 00:23:40;;;;;;;17.58;4.00;;;9.30;99.90;;;;;;4988415;28;20052;-79
2022/04/07 00:26:06;;;;;;;23.30;4.10;;;9.30;99.90;;;;;;4988293;28;20177;-79
2022/04/07 00:28:32;;;;;;;21.02;4.10;;;9.30;99.90;;;;;;4985467;28;20050;-80
2022/04/07 00:30:58;;;;;;;21.50;4.15;;;9.30;99.90;;;;;;4987929;28;20038;-79
2022/04/07 00:33:24;;;;;;;23.27;4.15;;;9.30;99.90;;;;;;4955632;28;20054;-79
2022/04/07 00:35:49;;;;;;;19.50;3.70;;;9.30;99.90;;;;;;4987042;28;20621;-79
2022/04/07 00:38:15;;;;;;;18.15;3.90;;;9.30;99.90;;;;;;4971685;28;20092;-79
2022/04/07 00:40:41;;;;;;;22.75;4.32;;;9.30;99.90;;;;;;4948020;28;20742;-79
2022/04/07 00:43:07;;;;;;;20.35;3.60;;;9.30;99.90;;;;;;4971115;28;20049;-79
2022/04/07 00:45:32;;;;;;;17.02;4.15;;;9.30;99.90;;;;;;4987948;28;21038;-80
2022/04/07 00:47:58;;;;;;;18.10;4.03;;;9.30;99.90;;;;;;4985981;28;20053;-79
2022/04/07 00:50:24;;;;;;;17.55;3.60;;;9.30;99.90;;;;;;4986517;28;20046;-78
2022/04/07 00:52:54;;;;;;;18.95;4.57;;;9.30;99.90;;;;;;4968945;28;20057;-79
2022/04/07 00:55:20;;;;;;;23.15;4.28;;;9.40;99.90;;;;;;4969945;28;20073;-79
2022/04/07 00:57:46;;;;;;;18.10;3.75;;;9.30;99.90;;;;;;4986157;28;20104;-80
2022/04/07 01:00:14;;;;;;;24.85;4.63;;;9.90;99.90;;;;;;4954224;28;20073;-79
2022/04/07 01:02:40;;;;;;;23.73;4.00;;;9.30;99.90;;;;;;4964828;28;20046;-80
2022/04/07 01:05:09;;;;;;;19.60;4.43;;;9.30;99.90;;;;;;4954441;28;20050;-80
2022/04/07 01:07:39;;;;;;;22.45;4.68;;;9.30;99.90;;;;;;4963660;28;20088;-80
2022/04/07 01:10:09;;;;;;;22.70;5.03;;;9.30;99.90;;;;;;4971107;28;20038;-80
2022/04/07 01:12:35;;;;;;;24.98;4.93;;;9.30;99.90;;;;;;4955895;28;20065;-81
2022/04/07 01:15:04;;;;;;;21.35;4.50;;;9.30;99.90;;;;;;4971956;28;20100;-80
2022/04/07 01:17:31;;;;;;;16.73;3.75;;;9.30;99.90;;;;;;5003028;28;20042;-80
2022/04/07 01:19:57;;;;;;;25.35;3.78;;;9.30;99.90;;;;;;4969703;28;20820;-78
2022/04/07 01:22:23;;;;;;;14.93;3.83;;;9.30;99.90;;;;;;4954745;28;20515;-77
2022/04/07 01:24:49;;;;;;;19.00;4.57;;;9.20;99.90;;;;;;4963972;28;20132;-78
2022/04/07 01:27:16;;;;;;;15.75;4.60;;;9.20;99.90;;;;;;4974424;28;20042;-80
2022/04/07 01:29:43;;;;;;;23.40;5.03;;;9.20;99.90;;;;;;4959157;28;20050;-80
2022/04/07 01:32:21;;;;;;;19.08;4.55;;;9.30;99.90;;;;;;4977482;28;20407;-80
2022/04/07 01:34:48;;;;;;;19.38;4.30;;;8.70;99.90;;;;;;4975838;28;20112;-79
2022/04/07 01:37:16;;;;;;;19.80;4.13;;;9.30;99.90;;;;;;4975944;28;20057;-80
2022/04/07 01:39:43;;;;;;;17.65;4.18;;;9.30;99.90;;;;;;4974653;28;20108;-80
2022/04/07 01:42:12;;;;;;;22.40;4.65;;;9.30;99.90;;;;;;4975557;28;20092;-79
2022/04/07 01:44:44;;;;;;;22.30;4.53;;;9.30;99.90;;;;;;4986157;28;20053;-80
2022/04/07 01:47:13;;;;;;;20.20;4.88;;;9.30;99.90;;;;;;4986281;28;20085;-80
2022/04/07 01:49:40;;;;;;;26.17;4.68;;;9.30;99.90;;;;;;4974875;28;20395;-79
2022/04/07 01:52:07;;;;;;;20.25;4.68;;;9.30;99.90;;;;;;4958673;28;20052;-79
2022/04/07 01:54:35;;;;;;;23.50;4.45;;;9.30;99.90;;;;;;4985993;28;20137;-78
2022/04/07 01:57:01;;;;;;;15.82;3.88;;;9.30;99.90;;;;;;4971564;28;20050;-79
2022/04/07 01:59:28;;;;;;;24.08;4.45;;;9.30;99.90;;;;;;4990176;28;20764;-79
2022/04/07 02:01:54;;;;;;;20.05;3.97;;;9.30;99.90;;;;;;4973531;28;20389;-80
2022/04/07 02:04:19;;;;;;;18.98;4.00;;;9.40;99.90;;;;;;4958059;28;20518;-79
2022/04/07 02:06:45;;;;;;;21.23;4.65;;;9.30;99.90;;;;;;4988690;28;20136;-80
2022/04/07 02:09:11;;;;;;;21.17;4.50;;;9.30;99.90;;;;;;4989339;28;20365;-80
2022/04/07 02:11:37;;;;;;;17.25;4.15;;;9.30;99.90;;;;;;4972896;28;20062;-81
2022/04/07 02:14:02;;;;;;;21.65;4.38;;;9.30;99.90;;;;;;4990670;28;20084;-80
2022/04/07 02:16:30;;;;;;;23.83;4.63;;;9.30;99.90;;;;;;4957797;28;20415;-80
2022/04/07 02:18:56;;;;;;;22.13;4.38;;;9.30;99.90;;;;;;4988523;28;20042;-80
2022/04/07 02:21:22;;;;;;;21.25;4.90;;;9.20;99.90;;;;;;4972355;28;20069;-80
2022/04/07 02:23:48;;;;;;;20.08;4.40;;;9.20;99.90;;;;;;4987213;28;20050;-79
2022/04/07 02:26:18;;;;;;;18.40;4.32;;;9.20;99.90;;;;;;4956193;28;20052;-80
2022/04/07 02:28:44;;;;;;;21.10;4.40;;;9.20;99.90;;;;;;4950921;28;20054;-79
2022/04/07 02:31:11;;;;;;;29.63;4.60;;;9.20;99.90;;;;;;4975548;28;20042;-80
2022/04/07 02:33:37;;;;;;;26.10;4.50;;;9.20;99.90;;;;;;4992150;28;20046;-80
2022/04/07 02:36:04;;;;;;;25.38;4.53;;;9.20;99.90;;;;;;4975153;28;20101;-79
2022/04/07 02:38:31;;;;;;;25.23;4.28;;;9.20;99.90;;;;;;4973192;28;20058;-79
2022/04/07 02:40:57;;;;;;;20.25;4.35;;;9.20;99.90;;;;;;4989904;28;20038;-80
2022/04/07 02:43:23;;;;;;;23.67;4.35;;;9.20;99.90;;;;;;4959691;28;20064;-80
2022/04/07 02:45:48;;;;;;;19.85;4.15;;;9.20;99.90;;;;;;4991604;28;20046;-80
2022/04/07 02:48:14;;;;;;;19.67;4.55;;;9.20;99.90;;;;;;4958765;28;20833;-80
2022/04/07 02:50:40;;;;;;;23.60;4.30;;;9.50;99.90;;;;;;4985376;28;20073;-81
2022/04/07 02:53:05;;;;;;;21.77;4.82;;;9.10;99.90;;;;;;4974286;28;20059;-80
2022/04/07 02:55:31;;;;;;;17.55;3.60;;;9.10;99.90;;;;;;4960206;28;20054;-78
2022/04/07 02:58:00;;;;;;;23.92;4.68;;;9.20;99.90;;;;;;4940277;28;20464;-80
2022/04/07 03:00:26;;;;;;;16.13;4.15;;;9.20;99.90;;;;;;4991011;28;20042;-79
2022/04/07 03:02:51;;;;;;;22.33;4.10;;;8.00;99.90;;;;;;4957203;28;20109;-79
2022/04/07 03:05:17;;;;;;;25.92;4.88;;;9.20;99.90;;;;;;4949168;28;20527;-81
2022/04/07 03:07:43;;;;;;;20.67;4.85;;;9.30;99.90;;;;;;4988805;28;20038;-78
2022/04/07 03:10:09;;;;;;;17.90;4.40;;;9.30;99.90;;;;;;4973430;28;20156;-79
2022/04/07 03:12:35;;;;;;;21.50;4.20;;;9.20;99.90;;;;;;4966928;28;20050;-78
2022/04/07 03:15:02;;;;;;;22.48;5.07;;;9.30;99.90;;;;;;4988404;28;20054;-78
2022/04/07 03:17:28;;;;;;;26.98;5.78;;;9.30;99.90;;;;;;4973244;28;20054;-77
2022/04/07 03:19:53;;;;;;;22.63;4.90;;;9.30;99.90;;;;;;4957246;28;20046;-78
2022/04/07 03:22:19;;;;;;;23.25;4.93;;;9.30;99.90;;;;;;4940869;28;20069;-78
2022/04/07 03:24:48;;;;;;;23.88;5.20;;;9.30;99.90;;;;;;4956048;28;20487;-78
2022/04/07 03:27:14;;;;;;;22.65;4.85;;;9.30;99.90;;;;;;4990249;28;20603;-78
2022/04/07 03:29:40;;;;;;;24.98;5.50;;;9.30;99.90;;;;;;4940784;28;20038;-79
2022/04/07 03:32:06;;;;;;;27.35;5.55;;;9.20;99.90;;;;;;4973575;28;20042;-79
2022/04/07 03:34:36;;;;;;;25.23;4.63;;;9.30;99.90;;;;;;4984757;28;20097;-78
2022/04/07 03:37:06;;;;;;;18.13;4.35;;;9.20;99.90;;;;;;4972344;28;20495;-78
2022/04/07 03:39:35;;;;;;;19.90;4.63;;;9.20;99.90;;;;;;4987898;28;20050;-78
2022/04/07 03:42:01;;;;;;;26.52;5.68;;;9.20;99.90;;;;;;4988626;28;20046;-78
2022/04/07 03:44:27;;;;;;;25.50;5.40;;;9.20;99.90;;;;;;4987671;28;20070;-78
2022/04/07 03:46:53;;;;;;;27.30;5.57;;;9.20;99.90;;;;;;4988669;28;20046;-78
2022/04/07 03:49:20;;;;;;;23.83;5.15;;;9.20;99.90;;;;;;4971880;28;20060;-78
2022/04/07 03:51:46;;;;;;;24.13;5.88;;;9.20;99.90;;;;;;4956735;28;20230;-78
2022/04/07 03:54:12;;;;;;;30.35;6.10;;;9.20;99.90;;;;;;4972581;28;20042;-78
2022/04/07 03:56:38;;;;;;;34.50;6.03;;;9.50;99.90;;;;;;4989810;28;20133;-78
2022/04/07 03:59:04;;;;;;;27.67;5.22;;;9.20;99.90;;;;;;4957087;28;20861;-78
2022/04/07 04:01:30;;;;;;;28.60;5.85;;;9.20;99.90;;;;;;4989612;28;20046;-78
2022/04/07 04:03:55;;;;;;;25.55;5.60;;;9.20;99.90;;;;;;4989870;28;20782;-78
2022/04/07 04:06:21;;;;;;;35.80;7.15;;;9.20;99.90;;;;;;4973411;28;20157;-78
2022/04/07 04:08:47;;;;;;;35.00;6.57;;;9.20;99.90;;;;;;4973005;28;20077;-78
2022/04/07 04:11:13;;;;;;;31.30;6.65;;;9.20;99.90;;;;;;4974867;28;20073;-79
2022/04/07 04:13:40;;;;;;;30.77;6.32;;;9.20;99.90;;;;;;4989636;28;20496;-79
2022/04/07 04:16:06;;;;;;;25.65;6.18;;;9.10;99.90;;;;;;4971917;28;20050;-79
2022/04/07 04:18:32;;;;;;;23.27;5.70;;;9.20;99.90;;;;;;4988492;28;20121;-80
2022/04/07 04:20:58;;;;;;;25.70;5.82;;;9.10;99.90;;;;;;4988369;28;20108;-78
2022/04/07 04:23:24;;;;;;;34.25;6.82;;;9.10;99.90;;;;;;4987910;28;20062;-78
2022/04/07 04:25:50;;;;;;;28.27;5.95;;;9.10;99.90;;;;;;4988303;28;20057;-78
2022/04/07 04:28:16;;;;;;;34.03;6.07;;;9.10;99.90;;;;;;4955532;28;20050;-77
2022/04/07 04:30:42;;;;;;;36.40;6.80;;;9.10;99.90;;;;;;4963819;28;20105;-78
2022/04/07 04:33:08;;;;;;;35.97;6.90;;;9.10;99.90;;;;;;4955954;28;20586;-77
2022/04/07 04:35:33;;;;;;;25.33;6.65;;;9.10;99.90;;;;;;4988849;28;20057;-77
2022/04/07 04:37:59;;;;;;;31.80;6.18;;;9.00;99.90;;;;;;4965483;28;20519;-78
2022/04/07 04:40:25;;;;;;;27.35;5.43;;;8.90;99.90;;;;;;4940184;28;20108;-77
2022/04/07 04:42:51;;;;;;;38.67;7.10;;;8.70;99.90;;;;;;4971053;28;20098;-77
2022/04/07 04:45:17;;;;;;;26.05;5.97;;;8.50;99.90;;;;;;4971360;28;20050;-76
2022/04/07 04:47:42;;;;;;;22.45;5.00;;;8.30;99.90;;;;;;4955226;28;20119;-78
2022/04/07 04:50:08;;;;;;;17.05;3.38;;;8.20;99.90;;;;;;4955839;28;20038;-76
2022/04/07 04:52:34;;;;;;;14.98;3.10;;;8.00;99.90;;;;;;4987311;28;20038;-78
2022/04/07 04:55:00;;;;;;;15.80;3.10;;;7.90;99.90;;;;;;4986155;28;20092;-76
2022/04/07 04:57:27;;;;;;;12.25;2.28;;;7.80;99.90;;;;;;4970567;28;20053;-79
2022/04/07 04:59:53;;;;;;;15.90;2.65;;;8.30;99.90;;;;;;4972760;28;20076;-76
2022/04/07 05:02:19;;;;;;;11.50;2.25;;;7.80;99.90;;;;;;4960010;28;20400;-76
2022/04/07 05:04:45;;;;;;;13.00;2.33;;;7.50;99.90;;;;;;4991546;28;20177;-78
2022/04/07 05:07:11;;;;;;;14.05;2.67;;;7.30;99.90;;;;;;4975053;28;20119;-78
2022/04/07 05:09:38;;;;;;;9.65;2.15;;;7.20;99.90;;;;;;4973900;28;20057;-78
2022/04/07 05:12:05;;;;;;;8.77;1.60;;;7.50;99.90;;;;;;4975403;28;20112;-78
2022/04/07 05:14:30;;;;;;;10.38;2.15;;;7.10;99.90;;;;;;4975600;28;20042;-78
2022/04/07 05:16:56;;;;;;;13.95;2.40;;;7.00;99.90;;;;;;4990481;28;20038;-78
2022/04/07 05:19:22;;;;;;;14.93;2.63;;;7.00;99.90;;;;;;4973745;28;20415;-78
2022/04/07 05:21:50;;;;;;;17.02;2.85;;;6.90;99.90;;;;;;4958710;28;20050;-79
2022/04/07 05:24:19;;;;;;;14.57;2.17;;;7.10;99.90;;;;;;4974123;28;20061;-79
2022/04/07 05:26:46;;;;;;;16.95;2.60;;;6.80;99.90;;;;;;4984374;28;20050;-78
2022/04/07 05:29:12;;;;;;;12.07;2.38;;;6.80;99.90;;;;;;4988006;28;20145;-78
2022/04/07 05:31:38;;;;;;;12.80;2.42;;;6.80;99.90;;;;;;4990588;28;20042;-79
2022/04/07 05:34:04;;;;;;;10.77;2.05;;;6.80;99.90;;;;;;4988933;28;20046;-78
2022/04/07 05:36:29;;;;;;;15.88;2.05;;;6.70;99.90;;;;;;4974809;28;20054;-79
2022/04/07 05:38:55;;;;;;;8.93;1.73;;;6.70;99.90;;;;;;4989387;28;20137;-78
2022/04/07 05:41:21;;;;;;;18.58;2.20;;;6.70;99.90;;;;;;4974022;28;20111;-79
2022/04/07 05:43:47;;;;;;;9.52;1.83;;;6.60;99.90;;;;;;4973663;28;20043;-79
2022/04/07 05:46:12;;;;;;;10.25;2.20;;;6.60;99.90;;;;;;4990292;28;20100;-79
2022/04/07 05:48:38;;;;;;;10.63;2.10;;;7.40;99.90;;;;;;4987264;28;20039;-79
2022/04/07 05:51:04;;;;;;;8.02;1.90;;;6.60;99.90;;;;;;4940379;28;20074;-79
2022/04/07 05:53:30;;;;;;;9.13;1.67;;;6.60;99.90;;;;;;4990296;28;20046;-78
2022/04/07 05:55:59;;;;;;;7.45;1.48;;;6.70;99.90;;;;;;4988981;28;20061;-80
2022/04/07 05:58:26;;;;;;;12.52;2.33;;;6.60;99.90;;;;;;4987246;28;20046;-80
2022/04/07 06:00:52;;;;;;;9.15;1.42;;;6.60;99.90;;;;;;4987298;28;20043;-79
2022/04/07 06:03:18;;;;;;;9.82;1.67;;;6.60;99.90;;;;;;4972820;28;20054;-79
2022/04/07 06:05:44;;;;;;;9.75;2.05;;;6.60;99.90;;;;;;4965500;28;20050;-80
2022/04/07 06:08:09;;;;;;;7.43;1.73;;;7.30;99.90;;;;;;4954422;28;20188;-78
2022/04/07 06:10:36;;;;;;;8.27;1.58;;;6.60;99.90;;;;;;4989544;28;20050;-80
2022/04/07 06:13:02;;;;;;;11.02;1.92;;;6.60;99.90;;;;;;4973471;28;20056;-80
2022/04/07 06:15:29;;;;;;;9.68;1.90;;;6.60;99.90;;;;;;4989628;28;20080;-78
2022/04/07 06:17:55;;;;;;;10.20;1.92;;;6.60;99.90;;;;;;4987321;28;20061;-80
2022/04/07 06:20:21;;;;;;;5.97;1.45;;;6.60;99.90;;;;;;4962004;28;20731;-79
2022/04/07 06:22:47;;;;;;;10.65;2.08;;;6.70;99.90;;;;;;4955677;28;20101;-78
2022/04/07 06:25:13;;;;;;;7.93;1.90;;;6.70;99.90;;;;;;4987875;28;20570;-78
2022/04/07 06:27:40;;;;;;;9.18;1.75;;;5.80;99.90;;;;;;4987656;28;20081;-80
2022/04/07 06:30:11;;;;;;;12.05;2.20;;;6.70;99.90;;;;;;4971454;28;20097;-79
2022/04/07 06:32:38;;;;;;;8.35;1.85;;;6.80;99.90;;;;;;4972875;28;20057;-80
2022/04/07 06:35:05;;;;;;;8.00;1.85;;;6.80;99.90;;;;;;4972507;28;20054;-81
2022/04/07 06:37:31;;;;;;;10.43;1.80;;;6.80;99.90;;;;;;4957452;28;20053;-80
2022/04/07 06:40:03;;;;;;;13.32;2.35;;;6.80;99.90;;;;;;4947068;28;20038;-80
2022/04/07 06:42:29;;;;;;;12.75;1.95;;;6.80;99.90;;;;;;4941622;28;20610;-79
2022/04/07 06:44:55;;;;;;;13.88;1.85;;;6.80;99.90;;;;;;4971016;28;20057;-79
2022/04/07 06:47:24;;;;;;;11.20;1.98;;;6.90;99.90;;;;;;4945978;28;20046;-82
2022/04/07 06:49:51;;;;;;;10.30;1.80;;;6.90;99.90;;;;;;4938419;28;20077;-80
2022/04/07 06:52:18;;;;;;;8.98;1.80;;;6.90;99.90;;;;;;4987411;28;20054;-80
2022/04/07 06:54:44;;;;;;;13.25;2.13;;;6.90;99.90;;;;;;4970301;28;20496;-80
2022/04/07 06:57:10;;;;;;;10.63;2.20;;;6.90;99.90;;;;;;4963428;28;20399;-81
2022/04/07 06:59:36;;;;;;;9.55;2.20;;;7.00;99.90;;;;;;4954776;28;20034;-81
2022/04/07 07:02:02;;;;;;;12.35;2.20;;;6.90;99.90;;;;;;4987445;28;20128;-80
2022/04/07 07:04:28;;;;;;;11.50;1.83;;;7.00;99.90;;;;;;4967296;28;20042;-79
2022/04/07 07:06:53;;;;;;;12.05;1.90;;;7.10;99.90;;;;;;4961785;28;20338;-79
2022/04/07 07:09:19;;;;;;;13.15;2.00;;;7.00;99.90;;;;;;4985911;28;20116;-79
2022/04/07 07:11:45;;;;;;;9.13;1.92;;;7.10;99.90;;;;;;4971021;28;20411;-79
2022/04/07 07:14:10;;;;;;;8.45;2.00;;;7.20;99.90;;;;;;4954669;28;20364;-80
2022/04/07 07:16:36;;;;;;;13.00;2.55;;;7.40;99.90;;;;;;4987109;28;20478;-80
2022/04/07 07:19:02;;;;;;;13.77;2.30;;;7.50;99.90;;;;;;4945971;28;20141;-79
2022/04/07 07:21:28;;;;;;;14.10;2.47;;;7.60;99.90;;;;;;4986020;28;20054;-79
2022/04/07 07:23:53;;;;;;;10.75;2.17;;;7.80;99.90;;;;;;4985305;28;20058;-80
2022/04/07 07:26:19;;;;;;;13.38;2.05;;;7.90;99.90;;;;;;4962832;28;20535;-79
2022/04/07 07:28:45;;;;;;;7.80;2.13;;;8.10;99.90;;;;;;4952123;28;20056;-79
2022/04/07 07:31:10;;;;;;;9.38;2.70;;;8.30;99.90;;;;;;4986531;28;20039;-80
2022/04/07 07:33:36;;;;;;;12.80;2.42;;;8.50;99.90;;;;;;4987051;28;20108;-78
2022/04/07 07:36:02;;;;;;;10.10;2.20;;;8.60;99.90;;;;;;4953112;28;20165;-80
2022/04/07 07:38:28;;;;;;;11.68;2.45;;;8.70;99.90;;;;;;4986109;28;20122;-79
2022/04/07 07:40:54;;;;;;;12.05;1.98;;;8.80;99.90;;;;;;4954076;28;20052;-79
2022/04/07 07:43:21;;;;;;;9.40;2.53;;;8.80;99.90;;;;;;4953713;28;20072;-79
2022/04/07 07:45:47;;;;;;;12.60;2.80;;;8.80;99.90;;;;;;4955229;28;20120;-79
2022/04/07 07:48:12;;;;;;;12.00;2.55;;;8.90;99.90;;;;;;4968536;28;20046;-79
2022/04/07 07:50:41;;;;;;;9.25;1.95;;;8.90;99.90;;;;;;4967921;28;20046;-80
2022/04/07 07:53:07;;;;;;;11.52;3.03;;;9.00;99.90;;;;;;4984118;28;20484;-80
2022/04/07 07:55:35;;;;;;;8.82;2.03;;;9.10;99.90;;;;;;4969933;28;20124;-80
2022/04/07 07:58:01;;;;;;;10.20;2.20;;;9.10;99.90;;;;;;4970027;28;20137;-81
2022/04/07 08:00:27;;;;;;;8.77;2.22;;;9.00;99.90;;;;;;4953988;28;20216;-79
2022/04/07 08:02:53;;;;;;;8.75;2.53;;;9.00;99.90;;;;;;4971227;28;20130;-79
2022/04/07 08:05:19;;;;;;;11.40;2.40;;;9.00;99.90;;;;;;4987289;28;20056;-77
2022/04/07 08:07:44;;;;;;;10.63;2.13;;;9.10;99.90;;;;;;4969608;28;20062;-77
2022/04/07 08:10:10;;;;;;;10.93;2.35;;;9.20;99.90;;;;;;4985023;28;20050;-78
2022/04/07 08:12:37;;;;;;;9.32;2.30;;;9.30;99.90;;;;;;4985523;28;20118;-79
2022/04/07 08:15:04;;;;;;;10.13;2.28;;;9.50;99.90;;;;;;4985654;28;20042;-80
2022/04/07 08:17:31;;;;;;;11.63;2.22;;;9.50;99.90;;;;;;4959592;28;20537;-79
2022/04/07 08:19:56;;;;;;;12.40;2.60;;;9.60;99.90;;;;;;4954826;28;20033;-78
2022/04/07 08:22:23;;;;;;;10.85;2.38;;;9.40;99.90;;;;;;4966422;28;20065;-77
2022/04/07 08:24:49;;;;;;;15.80;2.67;;;9.40;99.90;;;;;;4967516;28;20049;-77
2022/04/07 08:27:14;;;;;;;9.63;2.08;;;9.50;99.90;;;;;;4953884;28;20050;-78
2022/04/07 08:29:40;;;;;;;14.35;2.45;;;9.70;99.90;;;;;;4954002;28;20070;-79
2022/04/07 08:32:06;;;;;;;14.32;2.70;;;9.90;99.90;;;;;;4953636;28;20061;-79
2022/04/07 08:34:32;;;;;;;10.45;2.20;;;9.90;99.90;;;;;;4954719;28;20074;-78
2022/04/07 08:36:58;;;;;;;9.75;2.30;;;9.80;99.90;;;;;;4979729;28;20074;-78
2022/04/07 08:39:23;;;;;;;12.70;2.45;;;9.70;99.90;;;;;;4967907;28;20045;-78
2022/04/07 08:41:50;;;;;;;14.98;2.47;;;9.90;99.90;;;;;;4952779;28;20046;-77
2022/04/07 08:44:17;;;;;;;10.05;2.20;;;10.00;99.90;;;;;;4967969;28;20046;-78
2022/04/07 08:46:51;;;;;;;15.02;2.70;;;10.10;99.90;;;;;;4970466;28;20057;-78
2022/04/07 08:49:20;;;;;;;13.35;2.45;;;10.10;99.90;;;;;;4985782;28;20034;-78
2022/04/07 08:51:47;;;;;;;16.30;2.90;;;10.00;99.90;;;;;;4967447;28;20078;-80
2022/04/07 08:54:13;;;;;;;12.45;2.97;;;9.90;99.90;;;;;;4970145;28;20050;-80
2022/04/07 08:56:39;;;;;;;9.20;2.38;;;9.90;99.90;;;;;;4953403;28;20050;-80
2022/04/07 08:59:05;;;;;;;12.30;2.45;;;9.80;99.90;;;;;;4952937;28;20137;-81
2022/04/07 09:01:31;;;;;;;11.40;3.17;;;9.80;99.90;;;;;;4967965;28;20569;-80
2022/04/07 09:03:57;;;;;;;10.57;2.60;;;9.70;99.90;;;;;;4984660;28;20042;-80
2022/04/07 09:06:23;;;;;;;10.30;2.72;;;9.70;99.90;;;;;;4968856;28;20050;-80
2022/04/07 09:08:49;;;;;;;7.38;2.10;;;9.50;99.90;;;;;;4943658;28;20050;-80
2022/04/07 09:11:17;;;;;;;10.10;2.42;;;9.40;99.90;;;;;;4953934;28;20645;-80
2022/04/07 09:13:49;;;;;;;10.20;2.83;;;9.40;99.90;;;;;;4970029;28;20438;-80
2022/04/07 09:16:15;;;;;;;10.80;2.83;;;9.30;99.90;;;;;;4968845;28;20081;-80
2022/04/07 09:18:43;;;;;;;10.80;2.72;;;9.30;99.90;;;;;;4951620;28;20046;-81
2022/04/07 09:21:27;;;;;;;9.73;2.50;;;9.30;99.90;;;;;;4966117;28;20137;-81
2022/04/07 09:23:57;;;;;;;12.27;2.88;;;9.30;99.90;;;;;;4985226;28;20447;-80
2022/04/07 09:26:24;;;;;;;14.02;2.65;;;9.60;99.90;;;;;;4952632;28;20488;-79
2022/04/07 09:28:55;;;;;;;10.32;2.53;;;9.60;99.90;;;;;;4984871;28;20054;-80
2022/04/07 09:31:22;;;;;;;11.05;2.72;;;9.60;99.90;;;;;;4984247;28;20132;-80
2022/04/07 09:33:53;;;;;;;9.63;2.50;;;9.50;99.90;;;;;;4953553;28;20385;-80
2022/04/07 09:36:21;;;;;;;10.10;2.45;;;9.40;99.90;;;;;;4952414;28;20500;-79
2022/04/07 09:38:55;;;;;;;14.00;3.53;;;9.30;99.90;;;;;;4953063;28;20050;-80
2022/04/07 09:41:27;;;;;;;13.98;2.92;;;9.30;99.90;;;;;;4965467;28;20408;-80
2022/04/07 09:43:58;;;;;;;10.70;2.80;;;9.30;99.90;;;;;;4960602;28;20399;-81
2022/04/07 09:46:35;;;;;;;14.45;3.28;;;9.20;99.90;;;;;;4970443;28;20504;-80
2022/04/07 09:49:03;;;;;;;12.20;3.35;;;9.20;99.90;;;;;;4971993;28;20042;-80
2022/04/07 09:51:29;;;;;;;14.35;2.88;;;9.10;99.90;;;;;;4987507;28;20626;-80
2022/04/07 09:53:57;;;;;;;17.10;3.08;;;9.20;99.90;;;;;;4987987;28;20057;-81
2022/04/07 09:56:27;;;;;;;10.98;2.95;;;9.20;99.90;;;;;;4971980;28;20512;-80
2022/04/07 09:58:57;;;;;;;14.52;3.05;;;9.30;99.90;;;;;;4988341;28;20073;-80
2022/04/07 10:01:23;;;;;;;11.02;2.63;;;9.20;99.90;;;;;;4997664;28;20042;-83
2022/04/07 10:03:52;;;;;;;13.85;3.30;;;9.20;99.90;;;;;;4989362;28;20042;-80
2022/04/07 10:06:19;;;;;;;12.98;2.53;;;9.30;99.90;;;;;;4988669;28;20058;-80
2022/04/07 10:08:49;;;;;;;12.80;2.53;;;9.20;99.90;;;;;;4965012;28;20492;-80
2022/04/07 10:11:17;;;;;;;14.68;3.03;;;9.30;99.90;;;;;;4953527;28;20042;-80
2022/04/07 10:13:46;;;;;;;14.23;3.38;;;9.30;99.90;;;;;;4987298;28;20101;-80
2022/04/07 10:16:15;;;;;;;18.05;3.03;;;9.20;99.90;;;;;;4988066;28;20046;-81
2022/04/07 10:18:57;;;;;;;15.95;2.88;;;9.20;99.90;;;;;;4970682;28;20101;-81
2022/04/07 10:22:01;;;;;;;14.70;3.00;;;9.10;99.90;;;;;;4970214;28;20486;-82
2022/04/07 10:24:37;;;;;;;10.10;2.50;;;9.10;99.90;;;;;;4970854;28;20392;-81
2022/04/07 10:27:05;;;;;;;;;;;9.20;99.90;;;;;;4971138;28;20057;-82
2022/04/07 10:29:31;;;;;;;14.60;3.33;;;9.20;99.90;;;;;;4965290;28;20498;-83
2022/04/07 10:32:09;;;;;;;16.63;3.47;;;9.40;99.90;;;;;;4971114;28;20133;-82
2022/04/07 10:34:35;;;;;;;15.48;3.30;;;9.60;99.90;;;;;;4988711;28;20060;-84
2022/04/07 10:37:08;;;;;;;15.20;3.05;;;10.00;99.90;;;;;;4987954;28;20380;-83
2022/04/07 10:39:34;;;;;;;14.77;3.10;;;10.20;99.90;;;;;;4987617;28;20042;-82
2022/04/07 10:42:01;;;;;;;13.57;3.00;;;10.20;99.90;;;;;;4946856;28;20400;-83
2022/04/07 10:44:28;;;;;;;15.30;3.13;;;10.30;99.90;;;;;;4987829;28;20089;-80
2022/04/07 10:47:04;;;;;;;13.18;3.35;;;10.20;99.90;;;;;;4970045;28;20049;-80
2022/04/07 10:49:31;;;;;;;12.38;3.03;;;10.10;99.90;;;;;;4971029;28;20136;-81
2022/04/07 10:51:59;;;;;;;14.02;3.08;;;10.00;99.90;;;;;;4971893;28;20052;-81
2022/04/07 10:54:29;;;;;;;10.60;3.33;;;9.90;99.90;;;;;;4946956;28;20058;-81
2022/04/07 10:56:59;;;;;;;13.65;3.33;;;10.00;99.90;;;;;;4971835;28;20112;-81
2022/04/07 10:59:34;;;;;;;14.27;3.40;;;10.20;99.90;;;;;;4962599;28;20393;-82
2022/04/07 11:02:12;;;;;;;12.52;2.63;;;10.20;99.90;;;;;;4972471;28;20165;-81
2022/04/07 11:05:00;;;;;;;15.32;3.38;;;10.40;99.90;;;;;;4946132;28;20061;-81
2022/04/07 11:07:32;;;;;;;18.05;3.17;;;10.60;99.90;;;;;;4969749;28;20118;-81
2022/04/07 11:09:58;;;;;;;10.15;2.80;;;10.70;99.90;;;;;;4983823;28;20050;-81
2022/04/07 11:12:33;;;;;;;13.48;3.70;;;10.80;99.90;;;;;;4986289;28;20574;-81
2022/04/07 11:15:02;;;;;;;11.77;2.75;;;11.00;99.90;;;;;;4960243;28;20060;-80
2022/04/07 11:17:41;;;;;;;17.13;3.45;;;11.20;99.90;;;;;;4977144;28;20070;-81
2022/04/07 11:20:19;;;;;;;12.00;3.05;;;11.40;99.90;;;;;;4985315;28;20049;-81
2022/04/07 11:22:45;;;;;;;12.57;3.03;;;11.50;99.90;;;;;;4985453;28;20062;-81
2022/04/07 11:25:14;;;;;;;10.88;2.85;;;11.50;99.90;;;;;;4969873;28;20050;-81
2022/04/07 11:27:42;;;;;;;14.90;3.67;;;11.40;99.90;;;;;;4986111;28;20052;-82
2022/04/07 11:30:17;;;;;;;13.23;3.17;;;11.30;99.90;;;;;;5000589;28;20058;-82
2022/04/07 11:36:02;;;;;;;15.55;3.47;;;11.00;99.90;;;;;;4984845;28;20247;-81
2022/04/07 11:38:29;;;;;;;18.80;3.95;;;10.80;99.90;;;;;;4975832;28;20053;-81
2022/04/07 11:40:59;;;;;;;10.25;3.08;;;10.50;99.90;;;;;;4983958;28;20108;-79
2022/04/07 11:43:29;;;;;;;11.65;2.60;;;10.20;99.90;;;;;;4982916;28;20081;-79
2022/04/07 11:45:55;;;;;;;11.32;3.25;;;10.00;99.90;;;;;;4963491;28;20509;-79
2022/04/07 11:48:22;;;;;;;11.73;2.97;;;10.30;99.90;;;;;;4985028;28;20046;-79
2022/04/07 11:50:49;;;;;;;12.05;3.30;;;10.50;99.90;;;;;;4953072;28;20128;-78
2022/04/07 11:53:18;;;;;;;14.82;3.05;;;10.50;99.90;;;;;;4969096;28;20054;-79
2022/04/07 11:55:44;;;;;;;9.85;2.53;;;10.60;99.90;;;;;;4945123;28;20058;-79
2022/04/07 11:58:11;;;;;;;9.70;2.97;;;10.60;99.90;;;;;;4968387;28;20057;-80
2022/04/07 12:00:36;;;;;;;8.02;2.58;;;10.20;99.90;;;;;;4968673;28;20104;-79
2022/04/07 12:03:05;;;;;;;14.45;2.65;;;10.00;99.90;;;;;;4945188;28;20050;-79
2022/04/07 12:05:35;;;;;;;9.18;2.55;;;10.10;99.90;;;;;;4961103;28;20050;-78
2022/04/07 12:08:12;;;;;;;14.13;3.30;;;10.30;99.90;;;;;;4953270;28;20054;-79
2022/04/07 12:10:39;;;;;;;11.02;3.00;;;10.50;99.90;;;;;;4952576;28;20052;-79
2022/04/07 12:13:06;;;;;;;15.38;3.20;;;10.70;99.90;;;;;;4985229;28;20065;-79
2022/04/07 12:15:37;;;;;;;12.93;3.28;;;10.70;99.90;;;;;;4954615;28;20101;-79
2022/04/07 12:18:06;;;;;;;9.73;2.22;;;10.80;99.90;;;;;;4960759;28;20381;-80
2022/04/07 12:20:36;;;;;;;9.43;2.10;;;10.40;99.90;;;;;;4944460;28;20058;-79
2022/04/07 12:23:10;;;;;;;9.93;2.38;;;10.30;99.90;;;;;;4984405;28;20064;-80
2022/04/07 12:25:37;;;;;;;9.50;2.35;;;10.50;99.90;;;;;;4968241;28;20046;-78
2022/04/07 12:28:08;;;;;;;11.38;2.47;;;10.60;99.90;;;;;;4965756;28;20050;-79
2022/04/07 12:30:47;;;;;;;12.07;2.80;;;10.80;99.90;;;;;;4968521;28;20055;-80
2022/04/07 12:33:40;;;;;;;9.05;2.42;;;11.00;99.90;;;;;;4985931;28;20053;-80
2022/04/07 12:36:15;;;;;;;12.80;2.83;;;11.00;99.90;;;;;;4979734;28;20061;-80
2022/04/07 12:38:57;;;;;;;9.90;2.47;;;11.00;99.90;;;;;;4978719;28;20053;-80
2022/04/07 12:41:22;;;;;;;10.45;3.03;;;10.40;99.90;;;;;;4969179;28;20385;-79
2022/04/07 12:43:50;;;;;;;15.15;2.78;;;9.70;99.90;;;;;;4953550;28;20057;-79
2022/04/07 12:46:17;;;;;;;14.73;2.70;;;9.20;99.90;;;;;;4985589;28;20046;-79
2022/04/07 12:48:59;;;;;;;9.75;2.22;;;8.70;99.90;;;;;;4953099;28;20092;-78
2022/04/07 12:51:26;;;;;;;10.48;2.60;;;8.50;99.90;;;;;;4985490;28;20046;-79
2022/04/07 12:54:07;;;;;;;18.13;3.45;;;8.20;99.90;;;;;;4986369;28;20046;-78